sensor_id;sensor_type;location;lat;lon;timestamp;P1;durP1;ratioP1;P2;durP2;ratioP2
73476;SDS011;61713;51.034;13.756;2022-07-12T00:00:51;6.93;;;3.08;;
73476;SDS011;61713;51.034;13.756;2022-07-12T00:03:16;5.88;;;3.13;;
73476;SDS011;61713;51.034;13.756;2022-07-12T00:05:42;5.55;;;3.42;;
73476;SDS011;61713;51.034;13.756;2022-07-12T00:08:08;6.15;;;3.53;;
73476;SDS011;61713;51.034;13.756;2022-07-12T00:10:33;5.78;;;3.10;;
73476;SDS011;61713;51.034;13.756;2022-07-12T00:12:59;4.88;;;3.28;;
73476;SDS011;61713;51.034;13.756;2022-07-12T00:15:24;4.65;;;3.30;;
73476;SDS011;61713;51.034;13.756;2022-07-12T00:17:50;4.75;;;3.10;;
73476;SDS011;61713;51.034;13.756;2022-07-12T00:20:16;5.32;;;3.50;;
73476;SDS011;61713;51.034;13.756;2022-07-12T00:22:41;6.43;;;3.70;;
73476;SDS011;61713;51.034;13.756;2022-07-12T00:25:07;5.23;;;3.67;;
73476;SDS011;61713;51.034;13.756;2022-07-12T00:27:33;6.05;;;3.40;;
73476;SDS011;61713;51.034;13.756;2022-07-12T00:29:58;4.17;;;3.30;;
73476;SDS011;61713;51.034;13.756;2022-07-12T00:32:24;6.33;;;3.60;;
73476;SDS011;61713;51.034;13.756;2022-07-12T00:34:49;5.90;;;4.00;;
73476;SDS011;61713;51.034;13.756;2022-07-12T00:37:15;5.03;;;3.83;;
73476;SDS011;61713;51.034;13.756;2022-07-12T00:39:40;4.83;;;3.90;;
73476;SDS011;61713;51.034;13.756;2022-07-12T00:42:06;5.65;;;3.60;;
73476;SDS011;61713;51.034;13.756;2022-07-12T00:44:31;4.60;;;3.50;;
73476;SDS011;61713;51.034;13.756;2022-07-12T00:46:58;6.47;;;3.97;;
73476;SDS011;61713;51.034;13.756;2022-07-12T00:49:24;6.93;;;4.18;;
73476;SDS011;61713;51.034;13.756;2022-07-12T00:51:50;7.40;;;4.03;;
73476;SDS011;61713;51.034;13.756;2022-07-12T00:54:19;5.10;;;3.75;;
73476;SDS011;61713;51.034;13.756;2022-07-12T00:56:44;6.22;;;4.07;;
73476;SDS011;61713;51.034;13.756;2022-07-12T00:59:10;5.60;;;3.93;;
73476;SDS011;61713;51.034;13.756;2022-07-12T01:01:36;5.47;;;3.93;;
73476;SDS011;61713;51.034;13.756;2022-07-12T01:04:03;6.60;;;3.70;;
73476;SDS011;61713;51.034;13.756;2022-07-12T01:06:29;6.10;;;3.88;;
73476;SDS011;61713;51.034;13.756;2022-07-12T01:08:56;5.90;;;3.65;;
73476;SDS011;61713;51.034;13.756;2022-07-12T01:11:24;6.18;;;3.78;;
73476;SDS011;61713;51.034;13.756;2022-07-12T01:13:50;5.85;;;3.50;;
73476;SDS011;61713;51.034;13.756;2022-07-12T01:16:16;5.63;;;3.60;;
73476;SDS011;61713;51.034;13.756;2022-07-12T01:18:43;4.95;;;3.60;;
73476;SDS011;61713;51.034;13.756;2022-07-12T01:21:09;5.30;;;3.65;;
73476;SDS011;61713;51.034;13.756;2022-07-12T01:23:37;5.53;;;3.20;;
73476;SDS011;61713;51.034;13.756;2022-07-12T01:26:04;4.93;;;3.47;;
73476;SDS011;61713;51.034;13.756;2022-07-12T01:28:29;5.10;;;3.30;;
73476;SDS011;61713;51.034;13.756;2022-07-12T01:30:55;5.70;;;3.20;;
73476;SDS011;61713;51.034;13.756;2022-07-12T01:33:20;4.73;;;3.20;;
73476;SDS011;61713;51.034;13.756;2022-07-12T01:35:46;4.83;;;3.67;;
73476;SDS011;61713;51.034;13.756;2022-07-12T01:38:12;5.32;;;3.67;;
73476;SDS011;61713;51.034;13.756;2022-07-12T01:40:37;4.00;;;3.30;;
73476;SDS011;61713;51.034;13.756;2022-07-12T01:43:03;6.20;;;3.50;;
73476;SDS011;61713;51.034;13.756;2022-07-12T01:45:29;4.65;;;3.35;;
73476;SDS011;61713;51.034;13.756;2022-07-12T01:47:55;5.57;;;3.50;;
73476;SDS011;61713;51.034;13.756;2022-07-12T01:50:23;5.97;;;3.60;;
73476;SDS011;61713;51.034;13.756;2022-07-12T01:52:49;5.07;;;3.50;;
73476;SDS011;61713;51.034;13.756;2022-07-12T01:55:16;5.75;;;3.45;;
73476;SDS011;61713;51.034;13.756;2022-07-12T01:57:42;4.88;;;3.50;;
73476;SDS011;61713;51.034;13.756;2022-07-12T02:00:08;4.88;;;3.53;;
73476;SDS011;61713;51.034;13.756;2022-07-12T02:02:35;5.10;;;3.67;;
73476;SDS011;61713;51.034;13.756;2022-07-12T02:05:00;5.33;;;3.80;;
73476;SDS011;61713;51.034;13.756;2022-07-12T02:07:27;5.72;;;4.57;;
73476;SDS011;61713;51.034;13.756;2022-07-12T02:09:53;7.65;;;3.88;;
73476;SDS011;61713;51.034;13.756;2022-07-12T02:12:18;7.10;;;3.97;;
73476;SDS011;61713;51.034;13.756;2022-07-12T02:14:44;6.13;;;3.80;;
73476;SDS011;61713;51.034;13.756;2022-07-12T02:17:09;5.93;;;3.73;;
73476;SDS011;61713;51.034;13.756;2022-07-12T02:19:35;5.80;;;3.60;;
73476;SDS011;61713;51.034;13.756;2022-07-12T02:22:01;4.68;;;3.83;;
73476;SDS011;61713;51.034;13.756;2022-07-12T02:24:26;7.65;;;4.18;;
73476;SDS011;61713;51.034;13.756;2022-07-12T02:26:52;6.85;;;3.83;;
73476;SDS011;61713;51.034;13.756;2022-07-12T02:29:18;5.35;;;3.22;;
73476;SDS011;61713;51.034;13.756;2022-07-12T02:31:43;6.38;;;3.60;;
73476;SDS011;61713;51.034;13.756;2022-07-12T02:34:08;7.47;;;3.50;;
73476;SDS011;61713;51.034;13.756;2022-07-12T02:36:34;5.80;;;3.67;;
73476;SDS011;61713;51.034;13.756;2022-07-12T02:39:00;6.00;;;3.90;;
73476;SDS011;61713;51.034;13.756;2022-07-12T02:41:29;5.30;;;3.80;;
73476;SDS011;61713;51.034;13.756;2022-07-12T02:43:55;6.45;;;3.88;;
73476;SDS011;61713;51.034;13.756;2022-07-12T02:46:21;6.93;;;3.88;;
73476;SDS011;61713;51.034;13.756;2022-07-12T02:48:47;5.90;;;3.90;;
73476;SDS011;61713;51.034;13.756;2022-07-12T02:51:12;5.25;;;4.00;;
73476;SDS011;61713;51.034;13.756;2022-07-12T02:53:38;5.35;;;3.80;;
73476;SDS011;61713;51.034;13.756;2022-07-12T02:56:04;6.30;;;4.00;;
73476;SDS011;61713;51.034;13.756;2022-07-12T02:58:29;5.83;;;3.57;;
73476;SDS011;61713;51.034;13.756;2022-07-12T03:00:55;4.70;;;3.57;;
73476;SDS011;61713;51.034;13.756;2022-07-12T03:03:20;5.30;;;3.90;;
73476;SDS011;61713;51.034;13.756;2022-07-12T03:05:46;7.43;;;4.07;;
73476;SDS011;61713;51.034;13.756;2022-07-12T03:08:12;5.53;;;4.07;;
73476;SDS011;61713;51.034;13.756;2022-07-12T03:10:38;5.97;;;3.57;;
73476;SDS011;61713;51.034;13.756;2022-07-12T03:13:03;6.68;;;3.78;;
73476;SDS011;61713;51.034;13.756;2022-07-12T03:15:30;6.30;;;3.70;;
73476;SDS011;61713;51.034;13.756;2022-07-12T03:17:56;5.60;;;3.50;;
73476;SDS011;61713;51.034;13.756;2022-07-12T03:20:23;6.75;;;3.70;;
73476;SDS011;61713;51.034;13.756;2022-07-12T03:22:49;6.60;;;3.50;;
73476;SDS011;61713;51.034;13.756;2022-07-12T03:25:16;6.03;;;3.53;;
73476;SDS011;61713;51.034;13.756;2022-07-12T03:27:42;5.45;;;3.30;;
73476;SDS011;61713;51.034;13.756;2022-07-12T03:30:08;5.80;;;3.67;;
73476;SDS011;61713;51.034;13.756;2022-07-12T03:32:35;5.75;;;3.70;;
73476;SDS011;61713;51.034;13.756;2022-07-12T03:35:01;6.20;;;4.80;;
73476;SDS011;61713;51.034;13.756;2022-07-12T03:37:27;7.28;;;3.97;;
73476;SDS011;61713;51.034;13.756;2022-07-12T03:39:53;5.23;;;3.87;;
73476;SDS011;61713;51.034;13.756;2022-07-12T03:42:18;6.47;;;3.87;;
73476;SDS011;61713;51.034;13.756;2022-07-12T03:44:44;6.53;;;4.60;;
73476;SDS011;61713;51.034;13.756;2022-07-12T03:47:10;6.93;;;5.18;;
73476;SDS011;61713;51.034;13.756;2022-07-12T03:49:36;6.25;;;3.75;;
73476;SDS011;61713;51.034;13.756;2022-07-12T03:52:02;5.30;;;3.70;;
73476;SDS011;61713;51.034;13.756;2022-07-12T03:54:28;6.75;;;4.57;;
73476;SDS011;61713;51.034;13.756;2022-07-12T03:56:53;8.90;;;4.50;;
73476;SDS011;61713;51.034;13.756;2022-07-12T03:59:37;5.10;;;3.50;;
73476;SDS011;61713;51.034;13.756;2022-07-12T04:02:03;6.83;;;3.90;;
73476;SDS011;61713;51.034;13.756;2022-07-12T04:04:28;6.77;;;3.67;;
73476;SDS011;61713;51.034;13.756;2022-07-12T04:06:54;5.80;;;3.90;;
73476;SDS011;61713;51.034;13.756;2022-07-12T04:09:19;4.97;;;3.30;;
73476;SDS011;61713;51.034;13.756;2022-07-12T04:11:45;6.27;;;3.90;;
73476;SDS011;61713;51.034;13.756;2022-07-12T04:14:11;6.30;;;3.97;;
73476;SDS011;61713;51.034;13.756;2022-07-12T04:16:36;6.47;;;3.90;;
73476;SDS011;61713;51.034;13.756;2022-07-12T04:19:02;5.27;;;3.40;;
73476;SDS011;61713;51.034;13.756;2022-07-12T04:21:29;6.03;;;3.47;;
73476;SDS011;61713;51.034;13.756;2022-07-12T04:23:55;6.07;;;3.43;;
73476;SDS011;61713;51.034;13.756;2022-07-12T04:26:20;7.63;;;4.00;;
73476;SDS011;61713;51.034;13.756;2022-07-12T04:28:46;5.10;;;3.30;;
73476;SDS011;61713;51.034;13.756;2022-07-12T04:31:11;4.25;;;3.17;;
73476;SDS011;61713;51.034;13.756;2022-07-12T04:33:37;5.63;;;3.42;;
73476;SDS011;61713;51.034;13.756;2022-07-12T04:36:02;5.50;;;3.30;;
73476;SDS011;61713;51.034;13.756;2022-07-12T04:38:29;6.27;;;3.50;;
73476;SDS011;61713;51.034;13.756;2022-07-12T04:40:54;4.53;;;3.22;;
73476;SDS011;61713;51.034;13.756;2022-07-12T04:43:20;7.33;;;3.07;;
73476;SDS011;61713;51.034;13.756;2022-07-12T04:45:46;4.65;;;3.35;;
73476;SDS011;61713;51.034;13.756;2022-07-12T04:48:11;5.57;;;3.27;;
73476;SDS011;61713;51.034;13.756;2022-07-12T04:50:37;4.50;;;3.17;;
73476;SDS011;61713;51.034;13.756;2022-07-12T04:53:03;6.13;;;3.53;;
73476;SDS011;61713;51.034;13.756;2022-07-12T04:55:28;4.67;;;3.20;;
73476;SDS011;61713;51.034;13.756;2022-07-12T04:57:54;5.82;;;3.17;;
73476;SDS011;61713;51.034;13.756;2022-07-12T05:00:20;5.95;;;3.55;;
73476;SDS011;61713;51.034;13.756;2022-07-12T05:02:46;4.97;;;3.83;;
73476;SDS011;61713;51.034;13.756;2022-07-12T05:05:11;5.13;;;3.30;;
73476;SDS011;61713;51.034;13.756;2022-07-12T05:07:37;4.65;;;3.40;;
73476;SDS011;61713;51.034;13.756;2022-07-12T05:10:02;5.70;;;3.28;;
73476;SDS011;61713;51.034;13.756;2022-07-12T05:12:29;6.30;;;3.33;;
73476;SDS011;61713;51.034;13.756;2022-07-12T05:14:54;5.43;;;3.50;;
73476;SDS011;61713;51.034;13.756;2022-07-12T05:17:20;5.67;;;3.70;;
73476;SDS011;61713;51.034;13.756;2022-07-12T05:19:45;5.77;;;4.00;;
73476;SDS011;61713;51.034;13.756;2022-07-12T05:22:10;6.43;;;4.15;;
73476;SDS011;61713;51.034;13.756;2022-07-12T05:24:36;7.80;;;3.78;;
73476;SDS011;61713;51.034;13.756;2022-07-12T05:27:01;14.50;;;9.20;;
73476;SDS011;61713;51.034;13.756;2022-07-12T05:29:27;15.67;;;9.23;;
73476;SDS011;61713;51.034;13.756;2022-07-12T05:31:56;6.60;;;4.80;;
73476;SDS011;61713;51.034;13.756;2022-07-12T05:34:22;12.13;;;5.47;;
73476;SDS011;61713;51.034;13.756;2022-07-12T05:36:48;8.87;;;6.60;;
73476;SDS011;61713;51.034;13.756;2022-07-12T05:39:13;16.57;;;10.60;;
73476;SDS011;61713;51.034;13.756;2022-07-12T05:41:39;9.13;;;8.23;;
73476;SDS011;61713;51.034;13.756;2022-07-12T05:44:04;8.82;;;8.02;;
73476;SDS011;61713;51.034;13.756;2022-07-12T05:46:30;8.75;;;7.85;;
73476;SDS011;61713;51.034;13.756;2022-07-12T05:48:55;8.98;;;8.02;;
73476;SDS011;61713;51.034;13.756;2022-07-12T05:51:21;9.25;;;7.45;;
73476;SDS011;61713;51.034;13.756;2022-07-12T05:54:05;8.63;;;7.72;;
73476;SDS011;61713;51.034;13.756;2022-07-12T05:56:31;9.10;;;8.13;;
73476;SDS011;61713;51.034;13.756;2022-07-12T05:58:56;8.13;;;7.32;;
73476;SDS011;61713;51.034;13.756;2022-07-12T06:01:21;7.90;;;7.20;;
73476;SDS011;61713;51.034;13.756;2022-07-12T06:03:47;8.67;;;7.77;;
73476;SDS011;61713;51.034;13.756;2022-07-12T06:06:12;8.77;;;7.83;;
73476;SDS011;61713;51.034;13.756;2022-07-12T06:08:38;7.78;;;6.97;;
73476;SDS011;61713;51.034;13.756;2022-07-12T06:11:04;7.30;;;6.25;;
73476;SDS011;61713;51.034;13.756;2022-07-12T06:13:29;7.90;;;7.20;;
73476;SDS011;61713;51.034;13.756;2022-07-12T06:15:55;8.43;;;7.55;;
73476;SDS011;61713;51.034;13.756;2022-07-12T06:18:21;8.30;;;7.50;;
73476;SDS011;61713;51.034;13.756;2022-07-12T06:20:47;7.70;;;6.88;;
73476;SDS011;61713;51.034;13.756;2022-07-12T06:23:12;8.13;;;7.30;;
73476;SDS011;61713;51.034;13.756;2022-07-12T06:25:38;6.95;;;6.25;;
73476;SDS011;61713;51.034;13.756;2022-07-12T06:28:04;7.88;;;6.95;;
73476;SDS011;61713;51.034;13.756;2022-07-12T06:30:30;7.75;;;6.95;;
73476;SDS011;61713;51.034;13.756;2022-07-12T06:32:55;8.07;;;7.13;;
73476;SDS011;61713;51.034;13.756;2022-07-12T06:35:21;9.23;;;7.93;;
73476;SDS011;61713;51.034;13.756;2022-07-12T06:37:46;10.23;;;6.57;;
73476;SDS011;61713;51.034;13.756;2022-07-12T06:40:12;8.47;;;7.50;;
73476;SDS011;61713;51.034;13.756;2022-07-12T06:42:40;8.38;;;6.38;;
73476;SDS011;61713;51.034;13.756;2022-07-12T06:45:05;7.65;;;6.57;;
73476;SDS011;61713;51.034;13.756;2022-07-12T06:47:31;7.72;;;6.93;;
73476;SDS011;61713;51.034;13.756;2022-07-12T06:49:57;7.83;;;6.73;;
73476;SDS011;61713;51.034;13.756;2022-07-12T06:52:22;6.90;;;6.20;;
73476;SDS011;61713;51.034;13.756;2022-07-12T06:54:48;7.93;;;6.90;;
73476;SDS011;61713;51.034;13.756;2022-07-12T06:57:13;7.70;;;6.50;;
73476;SDS011;61713;51.034;13.756;2022-07-12T06:59:39;9.07;;;6.20;;
73476;SDS011;61713;51.034;13.756;2022-07-12T07:02:04;7.70;;;6.67;;
73476;SDS011;61713;51.034;13.756;2022-07-12T07:04:30;9.35;;;6.55;;
73476;SDS011;61713;51.034;13.756;2022-07-12T07:06:55;8.10;;;7.30;;
73476;SDS011;61713;51.034;13.756;2022-07-12T07:09:21;8.93;;;6.68;;
73476;SDS011;61713;51.034;13.756;2022-07-12T07:11:46;8.73;;;5.83;;
73476;SDS011;61713;51.034;13.756;2022-07-12T07:14:12;7.50;;;6.77;;
73476;SDS011;61713;51.034;13.756;2022-07-12T07:16:38;6.83;;;5.77;;
73476;SDS011;61713;51.034;13.756;2022-07-12T07:19:03;8.23;;;6.00;;
73476;SDS011;61713;51.034;13.756;2022-07-12T07:21:30;7.03;;;6.32;;
73476;SDS011;61713;51.034;13.756;2022-07-12T07:23:56;8.33;;;6.33;;
73476;SDS011;61713;51.034;13.756;2022-07-12T07:26:21;7.03;;;5.90;;
73476;SDS011;61713;51.034;13.756;2022-07-12T07:28:47;9.20;;;6.30;;
73476;SDS011;61713;51.034;13.756;2022-07-12T07:31:34;6.30;;;5.70;;
73476;SDS011;61713;51.034;13.756;2022-07-12T07:34:01;6.63;;;5.68;;
73476;SDS011;61713;51.034;13.756;2022-07-12T07:36:27;6.70;;;5.60;;
73476;SDS011;61713;51.034;13.756;2022-07-12T07:38:52;8.33;;;5.77;;
73476;SDS011;61713;51.034;13.756;2022-07-12T07:41:18;7.70;;;5.80;;
73476;SDS011;61713;51.034;13.756;2022-07-12T07:43:43;6.13;;;5.10;;
73476;SDS011;61713;51.034;13.756;2022-07-12T07:46:09;5.68;;;4.90;;
73476;SDS011;61713;51.034;13.756;2022-07-12T07:48:34;7.65;;;5.20;;
73476;SDS011;61713;51.034;13.756;2022-07-12T07:51:00;5.03;;;4.30;;
73476;SDS011;61713;51.034;13.756;2022-07-12T07:53:25;6.10;;;4.30;;
73476;SDS011;61713;51.034;13.756;2022-07-12T07:55:51;5.57;;;4.55;;
73476;SDS011;61713;51.034;13.756;2022-07-12T07:58:16;5.72;;;4.45;;
73476;SDS011;61713;51.034;13.756;2022-07-12T08:00:42;4.70;;;3.53;;
73476;SDS011;61713;51.034;13.756;2022-07-12T08:03:07;5.70;;;3.75;;
73476;SDS011;61713;51.034;13.756;2022-07-12T08:05:33;4.43;;;3.80;;
73476;SDS011;61713;51.034;13.756;2022-07-12T08:07:58;6.17;;;4.10;;
73476;SDS011;61713;51.034;13.756;2022-07-12T08:10:24;6.13;;;3.45;;
73476;SDS011;61713;51.034;13.756;2022-07-12T08:12:50;5.10;;;3.50;;
73476;SDS011;61713;51.034;13.756;2022-07-12T08:15:16;6.40;;;3.93;;
73476;SDS011;61713;51.034;13.756;2022-07-12T08:17:41;6.97;;;3.67;;
73476;SDS011;61713;51.034;13.756;2022-07-12T08:20:07;5.32;;;4.00;;
73476;SDS011;61713;51.034;13.756;2022-07-12T08:22:33;5.30;;;3.83;;
73476;SDS011;61713;51.034;13.756;2022-07-12T08:24:58;6.78;;;4.05;;
73476;SDS011;61713;51.034;13.756;2022-07-12T08:27:24;6.70;;;3.90;;
73476;SDS011;61713;51.034;13.756;2022-07-12T08:29:49;7.70;;;3.83;;
73476;SDS011;61713;51.034;13.756;2022-07-12T08:32:15;8.60;;;3.77;;
73476;SDS011;61713;51.034;13.756;2022-07-12T08:34:41;5.37;;;3.30;;
73476;SDS011;61713;51.034;13.756;2022-07-12T08:37:07;6.68;;;3.40;;
73476;SDS011;61713;51.034;13.756;2022-07-12T08:39:33;4.05;;;2.75;;
73476;SDS011;61713;51.034;13.756;2022-07-12T08:41:58;5.90;;;3.10;;
73476;SDS011;61713;51.034;13.756;2022-07-12T08:44:24;5.00;;;2.92;;
73476;SDS011;61713;51.034;13.756;2022-07-12T08:46:50;4.97;;;2.92;;
73476;SDS011;61713;51.034;13.756;2022-07-12T08:49:17;4.10;;;2.65;;
73476;SDS011;61713;51.034;13.756;2022-07-12T08:51:42;5.90;;;2.70;;
73476;SDS011;61713;51.034;13.756;2022-07-12T08:54:09;4.63;;;2.55;;
73476;SDS011;61713;51.034;13.756;2022-07-12T08:56:38;3.63;;;2.40;;
73476;SDS011;61713;51.034;13.756;2022-07-12T08:59:08;4.82;;;2.35;;
73476;SDS011;61713;51.034;13.756;2022-07-12T09:01:39;4.40;;;2.43;;
73476;SDS011;61713;51.034;13.756;2022-07-12T09:04:10;3.08;;;2.00;;
73476;SDS011;61713;51.034;13.756;2022-07-12T09:06:36;4.80;;;3.90;;
73476;SDS011;61713;51.034;13.756;2022-07-12T09:09:02;5.37;;;2.30;;
73476;SDS011;61713;51.034;13.756;2022-07-12T09:11:29;6.30;;;2.40;;
73476;SDS011;61713;51.034;13.756;2022-07-12T09:13:55;3.83;;;1.80;;
73476;SDS011;61713;51.034;13.756;2022-07-12T09:16:22;2.67;;;1.85;;
73476;SDS011;61713;51.034;13.756;2022-07-12T09:18:49;3.67;;;2.10;;
73476;SDS011;61713;51.034;13.756;2022-07-12T09:21:25;4.55;;;1.85;;
73476;SDS011;61713;51.034;13.756;2022-07-12T09:23:56;3.72;;;1.70;;
73476;SDS011;61713;51.034;13.756;2022-07-12T09:26:32;3.92;;;1.90;;
73476;SDS011;61713;51.034;13.756;2022-07-12T09:29:07;2.78;;;1.67;;
73476;SDS011;61713;51.034;13.756;2022-07-12T09:31:49;2.63;;;1.45;;
73476;SDS011;61713;51.034;13.756;2022-07-12T09:34:34;3.42;;;1.60;;
73476;SDS011;61713;51.034;13.756;2022-07-12T09:37:19;2.95;;;1.60;;
73476;SDS011;61713;51.034;13.756;2022-07-12T09:39:45;3.88;;;1.58;;
73476;SDS011;61713;51.034;13.756;2022-07-12T09:42:11;3.13;;;1.60;;
73476;SDS011;61713;51.034;13.756;2022-07-12T09:44:40;2.55;;;1.42;;
73476;SDS011;61713;51.034;13.756;2022-07-12T09:47:08;2.13;;;1.35;;
73476;SDS011;61713;51.034;13.756;2022-07-12T09:49:41;3.38;;;1.40;;
73476;SDS011;61713;51.034;13.756;2022-07-12T09:52:12;3.55;;;1.70;;
73476;SDS011;61713;51.034;13.756;2022-07-12T09:54:45;3.85;;;1.35;;
73476;SDS011;61713;51.034;13.756;2022-07-12T09:57:27;3.58;;;1.40;;
73476;SDS011;61713;51.034;13.756;2022-07-12T09:59:55;2.95;;;1.00;;
73476;SDS011;61713;51.034;13.756;2022-07-12T10:02:22;2.80;;;1.27;;
73476;SDS011;61713;51.034;13.756;2022-07-12T10:04:48;2.38;;;1.30;;
73476;SDS011;61713;51.034;13.756;2022-07-12T10:07:14;2.50;;;1.20;;
73476;SDS011;61713;51.034;13.756;2022-07-12T10:09:44;4.57;;;1.50;;
73476;SDS011;61713;51.034;13.756;2022-07-12T10:12:15;3.70;;;1.40;;
73476;SDS011;61713;51.034;13.756;2022-07-12T10:14:43;2.33;;;1.40;;
73476;SDS011;61713;51.034;13.756;2022-07-12T10:17:09;1.98;;;1.20;;
73476;SDS011;61713;51.034;13.756;2022-07-12T10:19:36;3.63;;;1.42;;
73476;SDS011;61713;51.034;13.756;2022-07-12T10:22:03;3.80;;;1.30;;
73476;SDS011;61713;51.034;13.756;2022-07-12T10:26:58;2.13;;;1.10;;
73476;SDS011;61713;51.034;13.756;2022-07-12T10:29:39;2.28;;;1.30;;
73476;SDS011;61713;51.034;13.756;2022-07-12T10:35:06;1.95;;;1.10;;
73476;SDS011;61713;51.034;13.756;2022-07-12T10:37:37;3.45;;;1.40;;
73476;SDS011;61713;51.034;13.756;2022-07-12T10:45:28;2.85;;;1.23;;
73476;SDS011;61713;51.034;13.756;2022-07-12T10:47:59;1.67;;;1.10;;
73476;SDS011;61713;51.034;13.756;2022-07-12T10:56:06;1.17;;;0.82;;
73476;SDS011;61713;51.034;13.756;2022-07-12T10:58:40;4.78;;;1.15;;
73476;SDS011;61713;51.034;13.756;2022-07-12T11:01:29;2.00;;;0.80;;
73476;SDS011;61713;51.034;13.756;2022-07-12T11:04:06;1.48;;;0.80;;
73476;SDS011;61713;51.034;13.756;2022-07-12T11:06:35;2.72;;;0.82;;
73476;SDS011;61713;51.034;13.756;2022-07-12T11:09:03;2.00;;;0.90;;
73476;SDS011;61713;51.034;13.756;2022-07-12T11:11:54;1.10;;;0.70;;
73476;SDS011;61713;51.034;13.756;2022-07-12T11:16:54;2.45;;;0.90;;
73476;SDS011;61713;51.034;13.756;2022-07-12T11:19:22;1.63;;;0.95;;
73476;SDS011;61713;51.034;13.756;2022-07-12T11:21:48;1.85;;;0.90;;
73476;SDS011;61713;51.034;13.756;2022-07-12T11:24:21;2.90;;;1.10;;
73476;SDS011;61713;51.034;13.756;2022-07-12T11:26:48;2.97;;;0.90;;
73476;SDS011;61713;51.034;13.756;2022-07-12T11:29:13;1.98;;;0.70;;
73476;SDS011;61713;51.034;13.756;2022-07-12T11:31:40;1.77;;;0.93;;
73476;SDS011;61713;51.034;13.756;2022-07-12T11:34:05;2.80;;;0.90;;
73476;SDS011;61713;51.034;13.756;2022-07-12T11:36:31;1.43;;;1.00;;
73476;SDS011;61713;51.034;13.756;2022-07-12T11:38:58;2.80;;;1.00;;
73476;SDS011;61713;51.034;13.756;2022-07-12T11:41:25;1.20;;;0.90;;
73476;SDS011;61713;51.034;13.756;2022-07-12T11:43:50;1.30;;;0.80;;
73476;SDS011;61713;51.034;13.756;2022-07-12T11:46:16;1.87;;;0.80;;
73476;SDS011;61713;51.034;13.756;2022-07-12T11:48:42;2.57;;;0.90;;
73476;SDS011;61713;51.034;13.756;2022-07-12T11:51:09;2.30;;;0.80;;
73476;SDS011;61713;51.034;13.756;2022-07-12T11:53:37;3.05;;;1.02;;
73476;SDS011;61713;51.034;13.756;2022-07-12T11:56:04;2.00;;;0.90;;
73476;SDS011;61713;51.034;13.756;2022-07-12T11:58:31;2.72;;;1.20;;
73476;SDS011;61713;51.034;13.756;2022-07-12T12:01:03;2.45;;;0.98;;
73476;SDS011;61713;51.034;13.756;2022-07-12T12:03:30;1.55;;;0.90;;
73476;SDS011;61713;51.034;13.756;2022-07-12T12:05:57;4.80;;;0.93;;
73476;SDS011;61713;51.034;13.756;2022-07-12T12:08:23;2.10;;;0.90;;
73476;SDS011;61713;51.034;13.756;2022-07-12T12:10:56;3.97;;;0.90;;
73476;SDS011;61713;51.034;13.756;2022-07-12T12:13:24;2.88;;;1.10;;
73476;SDS011;61713;51.034;13.756;2022-07-12T12:16:00;4.85;;;1.00;;
73476;SDS011;61713;51.034;13.756;2022-07-12T12:18:37;1.83;;;0.90;;
73476;SDS011;61713;51.034;13.756;2022-07-12T12:21:05;1.52;;;1.00;;
73476;SDS011;61713;51.034;13.756;2022-07-12T12:23:32;1.80;;;0.83;;
73476;SDS011;61713;51.034;13.756;2022-07-12T12:26:11;1.15;;;0.85;;
73476;SDS011;61713;51.034;13.756;2022-07-12T12:28:43;2.53;;;0.90;;
73476;SDS011;61713;51.034;13.756;2022-07-12T12:31:14;2.65;;;0.90;;
73476;SDS011;61713;51.034;13.756;2022-07-12T12:33:41;2.17;;;0.90;;
73476;SDS011;61713;51.034;13.756;2022-07-12T12:36:12;4.27;;;1.10;;
73476;SDS011;61713;51.034;13.756;2022-07-12T12:38:38;2.03;;;1.10;;
73476;SDS011;61713;51.034;13.756;2022-07-12T12:41:03;2.20;;;1.00;;
73476;SDS011;61713;51.034;13.756;2022-07-12T12:43:30;2.67;;;0.90;;
73476;SDS011;61713;51.034;13.756;2022-07-12T12:45:57;2.10;;;0.90;;
73476;SDS011;61713;51.034;13.756;2022-07-12T12:48:23;3.35;;;1.10;;
73476;SDS011;61713;51.034;13.756;2022-07-12T12:51:06;2.55;;;1.00;;
73476;SDS011;61713;51.034;13.756;2022-07-12T12:53:33;2.88;;;1.00;;
73476;SDS011;61713;51.034;13.756;2022-07-12T12:56:01;2.05;;;1.08;;
73476;SDS011;61713;51.034;13.756;2022-07-12T12:58:29;2.17;;;0.98;;
73476;SDS011;61713;51.034;13.756;2022-07-12T13:00:54;1.70;;;1.20;;
73476;SDS011;61713;51.034;13.756;2022-07-12T13:03:21;3.47;;;0.90;;
73476;SDS011;61713;51.034;13.756;2022-07-12T13:05:49;2.55;;;0.98;;
73476;SDS011;61713;51.034;13.756;2022-07-12T13:08:15;1.88;;;1.02;;
73476;SDS011;61713;51.034;13.756;2022-07-12T13:10:41;1.40;;;1.00;;
73476;SDS011;61713;51.034;13.756;2022-07-12T13:13:09;1.70;;;1.00;;
73476;SDS011;61713;51.034;13.756;2022-07-12T13:15:36;4.32;;;1.08;;
73476;SDS011;61713;51.034;13.756;2022-07-12T13:18:02;1.65;;;1.13;;
73476;SDS011;61713;51.034;13.756;2022-07-12T13:20:29;1.40;;;1.00;;
73476;SDS011;61713;51.034;13.756;2022-07-12T13:22:55;2.75;;;1.48;;
73476;SDS011;61713;51.034;13.756;2022-07-12T13:25:21;1.88;;;1.20;;
73476;SDS011;61713;51.034;13.756;2022-07-12T13:27:48;4.97;;;1.20;;
73476;SDS011;61713;51.034;13.756;2022-07-12T13:30:15;3.90;;;1.05;;
73476;SDS011;61713;51.034;13.756;2022-07-12T13:32:41;1.60;;;1.08;;
73476;SDS011;61713;51.034;13.756;2022-07-12T13:35:07;2.50;;;1.08;;
73476;SDS011;61713;51.034;13.756;2022-07-12T13:37:34;4.50;;;1.10;;
73476;SDS011;61713;51.034;13.756;2022-07-12T13:40:03;2.63;;;1.10;;
73476;SDS011;61713;51.034;13.756;2022-07-12T13:42:39;2.42;;;1.20;;
73476;SDS011;61713;51.034;13.756;2022-07-12T13:45:11;2.08;;;1.27;;
73476;SDS011;61713;51.034;13.756;2022-07-12T13:47:40;2.55;;;1.33;;
73476;SDS011;61713;51.034;13.756;2022-07-12T13:50:07;1.42;;;1.20;;
73476;SDS011;61713;51.034;13.756;2022-07-12T13:52:33;1.70;;;1.25;;
73476;SDS011;61713;51.034;13.756;2022-07-12T13:54:59;2.22;;;1.30;;
73476;SDS011;61713;51.034;13.756;2022-07-12T13:57:24;1.57;;;1.20;;
73476;SDS011;61713;51.034;13.756;2022-07-12T13:59:50;4.82;;;1.20;;
73476;SDS011;61713;51.034;13.756;2022-07-12T14:02:17;1.60;;;1.17;;
73476;SDS011;61713;51.034;13.756;2022-07-12T14:04:43;2.13;;;1.25;;
73476;SDS011;61713;51.034;13.756;2022-07-12T14:07:08;2.23;;;1.30;;
73476;SDS011;61713;51.034;13.756;2022-07-12T14:09:34;3.40;;;1.40;;
73476;SDS011;61713;51.034;13.756;2022-07-12T14:11:59;3.25;;;1.58;;
73476;SDS011;61713;51.034;13.756;2022-07-12T14:14:27;2.35;;;1.58;;
73476;SDS011;61713;51.034;13.756;2022-07-12T14:17:11;2.03;;;1.25;;
73476;SDS011;61713;51.034;13.756;2022-07-12T14:19:37;3.30;;;1.30;;
73476;SDS011;61713;51.034;13.756;2022-07-12T14:22:02;4.30;;;1.20;;
73476;SDS011;61713;51.034;13.756;2022-07-12T14:24:28;2.83;;;1.20;;
73476;SDS011;61713;51.034;13.756;2022-07-12T14:26:53;2.90;;;1.27;;
73476;SDS011;61713;51.034;13.756;2022-07-12T14:29:19;1.67;;;1.20;;
73476;SDS011;61713;51.034;13.756;2022-07-12T14:31:44;2.33;;;1.00;;
73476;SDS011;61713;51.034;13.756;2022-07-12T14:34:10;2.93;;;1.30;;
73476;SDS011;61713;51.034;13.756;2022-07-12T14:36:35;1.30;;;1.20;;
73476;SDS011;61713;51.034;13.756;2022-07-12T14:39:00;2.47;;;1.30;;
73476;SDS011;61713;51.034;13.756;2022-07-12T14:41:26;1.57;;;1.10;;
73476;SDS011;61713;51.034;13.756;2022-07-12T14:43:51;1.40;;;1.10;;
73476;SDS011;61713;51.034;13.756;2022-07-12T14:46:17;2.42;;;1.30;;
73476;SDS011;61713;51.034;13.756;2022-07-12T14:48:43;1.90;;;1.50;;
73476;SDS011;61713;51.034;13.756;2022-07-12T14:51:08;1.60;;;1.50;;